sensor_id;sensor_type;location;lat;lon;timestamp;P1;durP1;ratioP1;P2;durP2;ratioP2
4563;SDS011;2294;51.818;8.484;2023-06-22T00:02:16;13.13;;;7.60;;
4563;SDS011;2294;51.818;8.484;2023-06-22T00:04:43;10.27;;;7.73;;
4563;SDS011;2294;51.818;8.484;2023-06-22T00:07:10;10.10;;;8.80;;
4563;SDS011;2294;51.818;8.484;2023-06-22T00:09:37;14.37;;;9.50;;
4563;SDS011;2294;51.818;8.484;2023-06-22T00:12:06;11.53;;;9.27;;
4563;SDS011;2294;51.818;8.484;2023-06-22T00:14:33;13.90;;;8.47;;
4563;SDS011;2294;51.818;8.484;2023-06-22T00:17:00;11.23;;;8.23;;
4563;SDS011;2294;51.818;8.484;2023-06-22T00:19:27;10.27;;;7.80;;
4563;SDS011;2294;51.818;8.484;2023-06-22T00:21:54;16.53;;;8.23;;
4563;SDS011;2294;51.818;8.484;2023-06-22T00:24:25;11.80;;;9.63;;
4563;SDS011;2294;51.818;8.484;2023-06-22T00:26:52;15.37;;;9.10;;
4563;SDS011;2294;51.818;8.484;2023-06-22T00:29:20;11.03;;;9.63;;
4563;SDS011;2294;51.818;8.484;2023-06-22T00:31:47;11.00;;;9.37;;
4563;SDS011;2294;51.818;8.484;2023-06-22T00:34:13;13.20;;;10.13;;
4563;SDS011;2294;51.818;8.484;2023-06-22T00:36:41;12.23;;;9.57;;
4563;SDS011;2294;51.818;8.484;2023-06-22T00:39:07;12.43;;;9.70;;
4563;SDS011;2294;51.818;8.484;2023-06-22T00:41:35;17.00;;;10.40;;
4563;SDS011;2294;51.818;8.484;2023-06-22T00:44:02;14.73;;;11.20;;
4563;SDS011;2294;51.818;8.484;2023-06-22T00:46:30;16.20;;;11.23;;
4563;SDS011;2294;51.818;8.484;2023-06-22T00:48:57;24.73;;;12.93;;
4563;SDS011;2294;51.818;8.484;2023-06-22T00:51:25;12.83;;;11.30;;
4563;SDS011;2294;51.818;8.484;2023-06-22T00:53:51;12.67;;;10.77;;
4563;SDS011;2294;51.818;8.484;2023-06-22T00:56:18;16.10;;;11.90;;
4563;SDS011;2294;51.818;8.484;2023-06-22T00:58:49;17.73;;;11.43;;
4563;SDS011;2294;51.818;8.484;2023-06-22T01:01:18;14.50;;;12.10;;
4563;SDS011;2294;51.818;8.484;2023-06-22T01:03:50;15.20;;;12.63;;
4563;SDS011;2294;51.818;8.484;2023-06-22T01:06:19;18.83;;;12.00;;
4563;SDS011;2294;51.818;8.484;2023-06-22T01:08:53;15.80;;;12.60;;
4563;SDS011;2294;51.818;8.484;2023-06-22T01:11:31;23.50;;;12.27;;
4563;SDS011;2294;51.818;8.484;2023-06-22T01:14:04;20.40;;;12.50;;
4563;SDS011;2294;51.818;8.484;2023-06-22T01:16:38;19.70;;;12.90;;
4563;SDS011;2294;51.818;8.484;2023-06-22T01:19:14;17.93;;;12.33;;
4563;SDS011;2294;51.818;8.484;2023-06-22T01:21:54;22.50;;;14.10;;
4563;SDS011;2294;51.818;8.484;2023-06-22T01:24:23;20.40;;;14.37;;
4563;SDS011;2294;51.818;8.484;2023-06-22T01:26:56;17.37;;;13.67;;
4563;SDS011;2294;51.818;8.484;2023-06-22T01:29:30;19.63;;;14.47;;
4563;SDS011;2294;51.818;8.484;2023-06-22T01:31:58;21.70;;;14.90;;
4563;SDS011;2294;51.818;8.484;2023-06-22T01:34:27;16.97;;;14.70;;
4563;SDS011;2294;51.818;8.484;2023-06-22T01:36:55;24.17;;;14.87;;
4563;SDS011;2294;51.818;8.484;2023-06-22T01:39:24;19.77;;;15.20;;
4563;SDS011;2294;51.818;8.484;2023-06-22T01:41:51;22.20;;;14.03;;
4563;SDS011;2294;51.818;8.484;2023-06-22T01:44:19;18.60;;;15.07;;
4563;SDS011;2294;51.818;8.484;2023-06-22T01:46:48;17.40;;;14.33;;
4563;SDS011;2294;51.818;8.484;2023-06-22T01:49:16;16.90;;;15.10;;
4563;SDS011;2294;51.818;8.484;2023-06-22T01:51:43;23.40;;;15.87;;
4563;SDS011;2294;51.818;8.484;2023-06-22T01:54:10;17.40;;;14.43;;
4563;SDS011;2294;51.818;8.484;2023-06-22T01:56:37;22.27;;;14.63;;
4563;SDS011;2294;51.818;8.484;2023-06-22T01:59:05;20.60;;;14.27;;
4563;SDS011;2294;51.818;8.484;2023-06-22T02:01:38;19.07;;;14.80;;
4563;SDS011;2294;51.818;8.484;2023-06-22T02:04:11;20.73;;;15.50;;
4563;SDS011;2294;51.818;8.484;2023-06-22T02:06:46;18.17;;;14.03;;
4563;SDS011;2294;51.818;8.484;2023-06-22T02:09:17;21.57;;;15.13;;
4563;SDS011;2294;51.818;8.484;2023-06-22T02:11:47;17.47;;;14.00;;
4563;SDS011;2294;51.818;8.484;2023-06-22T02:14:20;19.50;;;14.37;;
4563;SDS011;2294;51.818;8.484;2023-06-22T02:16:48;20.27;;;14.83;;
4563;SDS011;2294;51.818;8.484;2023-06-22T02:19:18;23.20;;;14.77;;
4563;SDS011;2294;51.818;8.484;2023-06-22T02:21:49;26.30;;;15.50;;
4563;SDS011;2294;51.818;8.484;2023-06-22T02:24:16;23.20;;;13.57;;
4563;SDS011;2294;51.818;8.484;2023-06-22T02:26:43;21.90;;;15.40;;
4563;SDS011;2294;51.818;8.484;2023-06-22T02:29:10;21.77;;;16.00;;
4563;SDS011;2294;51.818;8.484;2023-06-22T02:31:37;19.00;;;13.97;;
4563;SDS011;2294;51.818;8.484;2023-06-22T02:34:04;22.93;;;14.17;;
4563;SDS011;2294;51.818;8.484;2023-06-22T02:36:32;18.00;;;14.70;;
4563;SDS011;2294;51.818;8.484;2023-06-22T02:38:59;21.60;;;14.63;;
4563;SDS011;2294;51.818;8.484;2023-06-22T02:41:28;18.70;;;14.63;;
4563;SDS011;2294;51.818;8.484;2023-06-22T02:43:55;19.43;;;14.73;;
4563;SDS011;2294;51.818;8.484;2023-06-22T02:46:22;24.70;;;16.00;;
4563;SDS011;2294;51.818;8.484;2023-06-22T02:48:49;27.43;;;16.63;;
4563;SDS011;2294;51.818;8.484;2023-06-22T02:51:16;24.77;;;17.80;;
4563;SDS011;2294;51.818;8.484;2023-06-22T02:53:44;27.07;;;16.97;;
4563;SDS011;2294;51.818;8.484;2023-06-22T02:56:12;28.97;;;16.87;;
4563;SDS011;2294;51.818;8.484;2023-06-22T02:58:39;21.83;;;15.27;;
4563;SDS011;2294;51.818;8.484;2023-06-22T03:01:06;20.33;;;14.80;;
4563;SDS011;2294;51.818;8.484;2023-06-22T03:03:33;23.87;;;15.10;;
4563;SDS011;2294;51.818;8.484;2023-06-22T03:06:00;29.00;;;14.87;;
4563;SDS011;2294;51.818;8.484;2023-06-22T03:08:27;23.13;;;14.00;;
4563;SDS011;2294;51.818;8.484;2023-06-22T03:10:56;17.67;;;14.33;;
4563;SDS011;2294;51.818;8.484;2023-06-22T03:13:23;15.80;;;14.07;;
4563;SDS011;2294;51.818;8.484;2023-06-22T03:15:50;19.20;;;13.63;;
4563;SDS011;2294;51.818;8.484;2023-06-22T03:18:17;16.87;;;13.77;;
4563;SDS011;2294;51.818;8.484;2023-06-22T03:20:44;16.73;;;13.70;;
4563;SDS011;2294;51.818;8.484;2023-06-22T03:23:11;24.43;;;14.37;;
4563;SDS011;2294;51.818;8.484;2023-06-22T03:25:38;17.93;;;13.30;;
4563;SDS011;2294;51.818;8.484;2023-06-22T03:28:06;19.63;;;13.57;;
4563;SDS011;2294;51.818;8.484;2023-06-22T03:30:33;17.33;;;14.50;;
4563;SDS011;2294;51.818;8.484;2023-06-22T03:33:00;19.60;;;13.00;;
4563;SDS011;2294;51.818;8.484;2023-06-22T03:35:27;23.03;;;14.40;;
4563;SDS011;2294;51.818;8.484;2023-06-22T03:37:54;28.77;;;13.57;;
4563;SDS011;2294;51.818;8.484;2023-06-22T03:40:20;24.30;;;13.20;;
4563;SDS011;2294;51.818;8.484;2023-06-22T03:42:47;24.93;;;13.83;;
4563;SDS011;2294;51.818;8.484;2023-06-22T03:45:16;18.43;;;13.70;;
4563;SDS011;2294;51.818;8.484;2023-06-22T03:47:43;17.53;;;14.47;;
4563;SDS011;2294;51.818;8.484;2023-06-22T03:50:10;22.03;;;13.30;;
4563;SDS011;2294;51.818;8.484;2023-06-22T03:52:36;25.47;;;13.93;;
4563;SDS011;2294;51.818;8.484;2023-06-22T03:55:04;19.00;;;14.80;;
4563;SDS011;2294;51.818;8.484;2023-06-22T03:57:31;20.73;;;13.17;;
4563;SDS011;2294;51.818;8.484;2023-06-22T03:59:59;18.70;;;12.80;;
4563;SDS011;2294;51.818;8.484;2023-06-22T04:02:27;21.53;;;14.10;;
4563;SDS011;2294;51.818;8.484;2023-06-22T04:04:54;30.27;;;14.70;;
4563;SDS011;2294;51.818;8.484;2023-06-22T04:07:21;20.37;;;13.47;;
4563;SDS011;2294;51.818;8.484;2023-06-22T04:09:48;16.10;;;12.83;;
4563;SDS011;2294;51.818;8.484;2023-06-22T04:12:15;18.13;;;13.73;;
4563;SDS011;2294;51.818;8.484;2023-06-22T04:14:41;19.67;;;14.07;;
4563;SDS011;2294;51.818;8.484;2023-06-22T04:17:08;19.77;;;12.40;;
4563;SDS011;2294;51.818;8.484;2023-06-22T04:19:37;20.27;;;14.00;;
4563;SDS011;2294;51.818;8.484;2023-06-22T04:22:03;33.43;;;13.70;;
4563;SDS011;2294;51.818;8.484;2023-06-22T04:24:32;19.70;;;13.17;;
4563;SDS011;2294;51.818;8.484;2023-06-22T04:26:59;18.30;;;13.23;;
4563;SDS011;2294;51.818;8.484;2023-06-22T04:29:27;17.20;;;12.80;;
4563;SDS011;2294;51.818;8.484;2023-06-22T04:31:55;18.20;;;14.03;;
4563;SDS011;2294;51.818;8.484;2023-06-22T04:34:23;21.97;;;15.50;;
4563;SDS011;2294;51.818;8.484;2023-06-22T04:36:53;19.07;;;14.80;;
4563;SDS011;2294;51.818;8.484;2023-06-22T04:39:20;20.70;;;13.97;;
4563;SDS011;2294;51.818;8.484;2023-06-22T04:41:48;15.70;;;13.63;;
4563;SDS011;2294;51.818;8.484;2023-06-22T04:44:16;16.50;;;13.80;;
4563;SDS011;2294;51.818;8.484;2023-06-22T04:46:49;19.57;;;13.20;;
4563;SDS011;2294;51.818;8.484;2023-06-22T04:49:19;15.87;;;12.17;;
4563;SDS011;2294;51.818;8.484;2023-06-22T04:51:47;29.10;;;14.33;;
4563;SDS011;2294;51.818;8.484;2023-06-22T04:54:18;16.70;;;13.70;;
4563;SDS011;2294;51.818;8.484;2023-06-22T04:56:45;16.43;;;13.67;;
4563;SDS011;2294;51.818;8.484;2023-06-22T04:59:13;21.20;;;14.50;;
4563;SDS011;2294;51.818;8.484;2023-06-22T05:01:43;18.50;;;13.00;;
4563;SDS011;2294;51.818;8.484;2023-06-22T05:04:10;23.00;;;13.67;;
4563;SDS011;2294;51.818;8.484;2023-06-22T05:06:37;18.00;;;14.47;;
4563;SDS011;2294;51.818;8.484;2023-06-22T05:09:05;21.37;;;15.70;;
4563;SDS011;2294;51.818;8.484;2023-06-22T05:11:33;26.83;;;16.00;;
4563;SDS011;2294;51.818;8.484;2023-06-22T05:14:00;24.40;;;15.20;;
4563;SDS011;2294;51.818;8.484;2023-06-22T05:16:27;20.10;;;13.80;;
4563;SDS011;2294;51.818;8.484;2023-06-22T05:18:54;23.60;;;13.90;;
4563;SDS011;2294;51.818;8.484;2023-06-22T05:21:22;17.30;;;13.00;;
4563;SDS011;2294;51.818;8.484;2023-06-22T05:23:50;17.90;;;12.87;;
4563;SDS011;2294;51.818;8.484;2023-06-22T05:26:17;24.10;;;14.65;;
4563;SDS011;2294;51.818;8.484;2023-06-22T05:28:46;21.30;;;14.57;;
4563;SDS011;2294;51.818;8.484;2023-06-22T05:31:14;21.73;;;14.50;;
4563;SDS011;2294;51.818;8.484;2023-06-22T05:33:42;19.17;;;13.47;;
4563;SDS011;2294;51.818;8.484;2023-06-22T05:36:09;23.13;;;14.60;;
4563;SDS011;2294;51.818;8.484;2023-06-22T05:38:37;21.50;;;14.20;;
4563;SDS011;2294;51.818;8.484;2023-06-22T05:41:04;20.90;;;14.30;;
4563;SDS011;2294;51.818;8.484;2023-06-22T05:43:32;19.33;;;14.07;;
4563;SDS011;2294;51.818;8.484;2023-06-22T05:46:01;18.80;;;13.37;;
4563;SDS011;2294;51.818;8.484;2023-06-22T05:48:28;19.43;;;14.50;;
4563;SDS011;2294;51.818;8.484;2023-06-22T05:50:55;19.43;;;14.87;;
4563;SDS011;2294;51.818;8.484;2023-06-22T05:53:23;19.50;;;14.20;;
4563;SDS011;2294;51.818;8.484;2023-06-22T05:55:50;18.87;;;14.40;;
4563;SDS011;2294;51.818;8.484;2023-06-22T05:58:17;18.33;;;13.13;;
4563;SDS011;2294;51.818;8.484;2023-06-22T06:00:44;18.23;;;13.50;;
4563;SDS011;2294;51.818;8.484;2023-06-22T06:03:12;23.03;;;14.00;;
4563;SDS011;2294;51.818;8.484;2023-06-22T06:05:42;19.07;;;14.60;;
4563;SDS011;2294;51.818;8.484;2023-06-22T06:08:09;18.73;;;14.10;;
4563;SDS011;2294;51.818;8.484;2023-06-22T06:10:37;23.40;;;15.20;;
4563;SDS011;2294;51.818;8.484;2023-06-22T06:13:04;16.10;;;12.60;;
4563;SDS011;2294;51.818;8.484;2023-06-22T06:15:31;19.03;;;13.23;;
4563;SDS011;2294;51.818;8.484;2023-06-22T06:17:58;24.30;;;13.40;;
4563;SDS011;2294;51.818;8.484;2023-06-22T06:20:28;17.87;;;13.50;;
4563;SDS011;2294;51.818;8.484;2023-06-22T06:22:55;25.07;;;14.53;;
4563;SDS011;2294;51.818;8.484;2023-06-22T06:25:24;23.40;;;13.83;;
4563;SDS011;2294;51.818;8.484;2023-06-22T06:27:52;17.30;;;12.90;;
4563;SDS011;2294;51.818;8.484;2023-06-22T06:30:20;18.80;;;12.70;;
4563;SDS011;2294;51.818;8.484;2023-06-22T06:32:48;29.87;;;13.93;;
4563;SDS011;2294;51.818;8.484;2023-06-22T06:35:15;38.67;;;15.40;;
4563;SDS011;2294;51.818;8.484;2023-06-22T06:37:44;16.83;;;13.50;;
4563;SDS011;2294;51.818;8.484;2023-06-22T06:40:12;17.67;;;14.13;;
4563;SDS011;2294;51.818;8.484;2023-06-22T06:42:40;16.73;;;14.00;;
4563;SDS011;2294;51.818;8.484;2023-06-22T06:45:10;17.97;;;14.30;;
4563;SDS011;2294;51.818;8.484;2023-06-22T06:47:37;19.37;;;12.80;;
4563;SDS011;2294;51.818;8.484;2023-06-22T06:50:05;15.50;;;12.63;;
4563;SDS011;2294;51.818;8.484;2023-06-22T06:52:32;18.10;;;13.60;;
4563;SDS011;2294;51.818;8.484;2023-06-22T06:55:01;17.70;;;15.10;;
4563;SDS011;2294;51.818;8.484;2023-06-22T06:57:29;20.30;;;16.50;;
4563;SDS011;2294;51.818;8.484;2023-06-22T06:59:57;20.27;;;15.70;;
4563;SDS011;2294;51.818;8.484;2023-06-22T07:02:25;17.43;;;15.00;;
4563;SDS011;2294;51.818;8.484;2023-06-22T07:04:52;22.87;;;16.07;;
4563;SDS011;2294;51.818;8.484;2023-06-22T07:07:21;21.70;;;16.60;;
4563;SDS011;2294;51.818;8.484;2023-06-22T07:09:48;20.00;;;16.77;;
4563;SDS011;2294;51.818;8.484;2023-06-22T07:12:16;21.43;;;16.73;;
4563;SDS011;2294;51.818;8.484;2023-06-22T07:14:43;23.53;;;18.77;;
4563;SDS011;2294;51.818;8.484;2023-06-22T07:17:10;20.47;;;16.70;;
4563;SDS011;2294;51.818;8.484;2023-06-22T07:19:37;19.60;;;17.50;;
4563;SDS011;2294;51.818;8.484;2023-06-22T07:22:05;23.40;;;16.77;;
4563;SDS011;2294;51.818;8.484;2023-06-22T07:24:32;18.03;;;15.17;;
4563;SDS011;2294;51.818;8.484;2023-06-22T07:26:59;20.20;;;17.37;;
4563;SDS011;2294;51.818;8.484;2023-06-22T07:29:28;23.47;;;17.37;;
4563;SDS011;2294;51.818;8.484;2023-06-22T07:31:56;23.30;;;17.40;;
4563;SDS011;2294;51.818;8.484;2023-06-22T07:34:25;23.80;;;17.57;;
4563;SDS011;2294;51.818;8.484;2023-06-22T07:36:52;23.90;;;17.37;;
4563;SDS011;2294;51.818;8.484;2023-06-22T07:39:19;24.63;;;18.73;;
4563;SDS011;2294;51.818;8.484;2023-06-22T07:41:50;26.37;;;17.40;;
4563;SDS011;2294;51.818;8.484;2023-06-22T07:44:17;25.10;;;16.77;;
4563;SDS011;2294;51.818;8.484;2023-06-22T07:46:45;23.97;;;17.40;;
4563;SDS011;2294;51.818;8.484;2023-06-22T07:49:12;21.50;;;15.13;;
4563;SDS011;2294;51.818;8.484;2023-06-22T07:51:39;19.27;;;15.60;;
4563;SDS011;2294;51.818;8.484;2023-06-22T07:54:06;19.97;;;15.80;;
4563;SDS011;2294;51.818;8.484;2023-06-22T07:56:36;17.93;;;16.00;;
4563;SDS011;2294;51.818;8.484;2023-06-22T07:59:03;15.80;;;13.83;;
4563;SDS011;2294;51.818;8.484;2023-06-22T08:01:30;24.20;;;15.77;;
4563;SDS011;2294;51.818;8.484;2023-06-22T08:03:58;18.50;;;14.30;;
4563;SDS011;2294;51.818;8.484;2023-06-22T08:06:25;21.33;;;14.50;;
4563;SDS011;2294;51.818;8.484;2023-06-22T08:08:52;19.63;;;14.50;;
4563;SDS011;2294;51.818;8.484;2023-06-22T08:11:24;17.57;;;14.27;;
4563;SDS011;2294;51.818;8.484;2023-06-22T08:13:51;21.00;;;14.70;;
4563;SDS011;2294;51.818;8.484;2023-06-22T08:16:20;16.30;;;13.87;;
4563;SDS011;2294;51.818;8.484;2023-06-22T08:18:47;15.90;;;12.33;;
4563;SDS011;2294;51.818;8.484;2023-06-22T08:21:15;14.57;;;12.20;;
4563;SDS011;2294;51.818;8.484;2023-06-22T08:23:42;13.30;;;11.40;;
4563;SDS011;2294;51.818;8.484;2023-06-22T08:26:10;11.80;;;9.70;;
4563;SDS011;2294;51.818;8.484;2023-06-22T08:28:37;16.80;;;11.60;;
4563;SDS011;2294;51.818;8.484;2023-06-22T08:31:04;17.67;;;11.80;;
4563;SDS011;2294;51.818;8.484;2023-06-22T08:33:44;10.93;;;9.80;;
4563;SDS011;2294;51.818;8.484;2023-06-22T08:36:11;13.57;;;10.90;;
4563;SDS011;2294;51.818;8.484;2023-06-22T08:38:40;10.50;;;7.70;;
4563;SDS011;2294;51.818;8.484;2023-06-22T08:41:07;9.83;;;8.10;;
4563;SDS011;2294;51.818;8.484;2023-06-22T08:43:34;12.23;;;8.50;;
4563;SDS011;2294;51.818;8.484;2023-06-22T08:46:01;19.20;;;9.00;;
4563;SDS011;2294;51.818;8.484;2023-06-22T08:48:28;9.13;;;7.63;;
4563;SDS011;2294;51.818;8.484;2023-06-22T08:50:55;13.77;;;8.20;;
4563;SDS011;2294;51.818;8.484;2023-06-22T08:53:22;9.00;;;7.77;;
4563;SDS011;2294;51.818;8.484;2023-06-22T08:55:51;9.63;;;8.07;;
4563;SDS011;2294;51.818;8.484;2023-06-22T08:58:17;10.73;;;8.67;;
4563;SDS011;2294;51.818;8.484;2023-06-22T09:00:45;11.37;;;8.50;;
4563;SDS011;2294;51.818;8.484;2023-06-22T09:03:12;9.73;;;8.17;;
4563;SDS011;2294;51.818;8.484;2023-06-22T09:05:40;10.87;;;8.97;;
4563;SDS011;2294;51.818;8.484;2023-06-22T09:08:06;12.40;;;9.43;;
4563;SDS011;2294;51.818;8.484;2023-06-22T09:10:33;11.40;;;9.47;;
4563;SDS011;2294;51.818;8.484;2023-06-22T09:13:02;11.20;;;7.77;;
4563;SDS011;2294;51.818;8.484;2023-06-22T09:15:28;9.47;;;8.13;;
4563;SDS011;2294;51.818;8.484;2023-06-22T09:17:56;10.37;;;8.73;;
4563;SDS011;2294;51.818;8.484;2023-06-22T09:20:23;9.03;;;7.47;;
4563;SDS011;2294;51.818;8.484;2023-06-22T09:22:50;11.03;;;8.20;;
4563;SDS011;2294;51.818;8.484;2023-06-22T09:25:17;11.40;;;7.73;;
4563;SDS011;2294;51.818;8.484;2023-06-22T09:27:45;9.90;;;8.50;;
4563;SDS011;2294;51.818;8.484;2023-06-22T09:30:14;9.23;;;7.70;;
4563;SDS011;2294;51.818;8.484;2023-06-22T09:32:41;9.40;;;8.33;;
4563;SDS011;2294;51.818;8.484;2023-06-22T09:35:09;11.87;;;7.70;;
4563;SDS011;2294;51.818;8.484;2023-06-22T09:37:38;11.40;;;8.50;;
4563;SDS011;2294;51.818;8.484;2023-06-22T09:40:05;8.10;;;7.20;;
4563;SDS011;2294;51.818;8.484;2023-06-22T09:42:36;11.63;;;8.33;;
4563;SDS011;2294;51.818;8.484;2023-06-22T09:45:03;10.23;;;8.33;;
4563;SDS011;2294;51.818;8.484;2023-06-22T09:47:32;8.57;;;7.60;;
4563;SDS011;2294;51.818;8.484;2023-06-22T09:49:59;13.20;;;8.70;;
4563;SDS011;2294;51.818;8.484;2023-06-22T09:52:26;9.97;;;8.40;;
4563;SDS011;2294;51.818;8.484;2023-06-22T09:54:54;8.73;;;7.77;;
4563;SDS011;2294;51.818;8.484;2023-06-22T09:57:22;7.70;;;6.30;;
4563;SDS011;2294;51.818;8.484;2023-06-22T09:59:48;9.40;;;7.93;;
4563;SDS011;2294;51.818;8.484;2023-06-22T10:02:16;7.70;;;6.90;;
4563;SDS011;2294;51.818;8.484;2023-06-22T10:04:44;7.83;;;6.77;;
4563;SDS011;2294;51.818;8.484;2023-06-22T10:07:11;9.33;;;7.53;;
4563;SDS011;2294;51.818;8.484;2023-06-22T10:09:38;8.90;;;6.77;;
4563;SDS011;2294;51.818;8.484;2023-06-22T10:12:05;9.77;;;7.03;;
4563;SDS011;2294;51.818;8.484;2023-06-22T10:14:33;8.70;;;7.03;;
4563;SDS011;2294;51.818;8.484;2023-06-22T10:17:00;9.03;;;7.43;;
4563;SDS011;2294;51.818;8.484;2023-06-22T10:19:28;10.60;;;7.30;;
4563;SDS011;2294;51.818;8.484;2023-06-22T10:21:56;7.37;;;6.67;;
4563;SDS011;2294;51.818;8.484;2023-06-22T10:24:23;6.47;;;5.83;;
4563;SDS011;2294;51.818;8.484;2023-06-22T10:26:50;7.90;;;6.57;;
4563;SDS011;2294;51.818;8.484;2023-06-22T10:29:18;8.00;;;7.20;;
4563;SDS011;2294;51.818;8.484;2023-06-22T10:31:47;7.80;;;6.10;;
4563;SDS011;2294;51.818;8.484;2023-06-22T10:34:13;8.13;;;6.23;;
4563;SDS011;2294;51.818;8.484;2023-06-22T10:36:40;9.13;;;6.90;;
4563;SDS011;2294;51.818;8.484;2023-06-22T10:39:09;6.60;;;6.00;;
4563;SDS011;2294;51.818;8.484;2023-06-22T10:41:35;9.40;;;7.10;;
4563;SDS011;2294;51.818;8.484;2023-06-22T10:44:02;8.60;;;6.13;;
4563;SDS011;2294;51.818;8.484;2023-06-22T10:46:30;7.23;;;5.90;;
4563;SDS011;2294;51.818;8.484;2023-06-22T10:48:57;8.40;;;5.93;;
4563;SDS011;2294;51.818;8.484;2023-06-22T10:51:24;8.40;;;6.67;;
4563;SDS011;2294;51.818;8.484;2023-06-22T10:53:53;10.10;;;7.47;;
4563;SDS011;2294;51.818;8.484;2023-06-22T10:56:21;14.00;;;6.70;;
4563;SDS011;2294;51.818;8.484;2023-06-22T10:58:48;8.83;;;6.10;;
4563;SDS011;2294;51.818;8.484;2023-06-22T11:01:15;6.27;;;5.63;;
4563;SDS011;2294;51.818;8.484;2023-06-22T11:03:46;8.90;;;6.27;;
4563;SDS011;2294;51.818;8.484;2023-06-22T11:06:43;8.43;;;6.07;;
4563;SDS011;2294;51.818;8.484;2023-06-22T11:09:13;8.00;;;6.47;;
4563;SDS011;2294;51.818;8.484;2023-06-22T11:11:45;7.30;;;6.40;;
4563;SDS011;2294;51.818;8.484;2023-06-22T11:14:12;6.57;;;5.87;;
4563;SDS011;2294;51.818;8.484;2023-06-22T11:16:38;9.40;;;6.40;;
4563;SDS011;2294;51.818;8.484;2023-06-22T11:19:05;8.20;;;6.87;;
4563;SDS011;2294;51.818;8.484;2023-06-22T11:21:32;8.57;;;5.57;;
4563;SDS011;2294;51.818;8.484;2023-06-22T11:23:59;7.37;;;5.93;;
4563;SDS011;2294;51.818;8.484;2023-06-22T11:26:26;7.33;;;6.50;;
4563;SDS011;2294;51.818;8.484;2023-06-22T11:28:55;8.13;;;6.33;;
4563;SDS011;2294;51.818;8.484;2023-06-22T11:31:22;8.37;;;6.50;;
4563;SDS011;2294;51.818;8.484;2023-06-22T11:33:49;7.33;;;6.30;;
4563;SDS011;2294;51.818;8.484;2023-06-22T11:36:15;7.20;;;6.37;;
4563;SDS011;2294;51.818;8.484;2023-06-22T11:38:43;6.97;;;6.17;;
4563;SDS011;2294;51.818;8.484;2023-06-22T11:41:09;12.70;;;6.83;;
4563;SDS011;2294;51.818;8.484;2023-06-22T11:43:36;8.67;;;6.20;;
4563;SDS011;2294;51.818;8.484;2023-06-22T11:46:05;9.93;;;6.83;;
4563;SDS011;2294;51.818;8.484;2023-06-22T11:48:32;7.83;;;7.03;;
4563;SDS011;2294;51.818;8.484;2023-06-22T11:50:58;11.43;;;7.67;;
4563;SDS011;2294;51.818;8.484;2023-06-22T11:53:27;8.83;;;7.23;;
4563;SDS011;2294;51.818;8.484;2023-06-22T11:55:54;10.43;;;7.77;;
4563;SDS011;2294;51.818;8.484;2023-06-22T11:58:22;10.00;;;8.03;;
4563;SDS011;2294;51.818;8.484;2023-06-22T12:00:50;10.57;;;7.90;;
4563;SDS011;2294;51.818;8.484;2023-06-22T12:03:19;11.10;;;8.37;;
4563;SDS011;2294;51.818;8.484;2023-06-22T12:05:46;12.43;;;8.80;;
4563;SDS011;2294;51.818;8.484;2023-06-22T12:08:13;13.57;;;9.07;;
4563;SDS011;2294;51.818;8.484;2023-06-22T12:10:40;10.57;;;9.03;;
4563;SDS011;2294;51.818;8.484;2023-06-22T12:13:07;10.50;;;9.27;;
4563;SDS011;2294;51.818;8.484;2023-06-22T12:15:34;15.97;;;9.13;;
4563;SDS011;2294;51.818;8.484;2023-06-22T12:18:01;12.87;;;10.17;;
4563;SDS011;2294;51.818;8.484;2023-06-22T12:20:30;10.20;;;9.10;;
4563;SDS011;2294;51.818;8.484;2023-06-22T12:22:57;16.43;;;9.20;;
4563;SDS011;2294;51.818;8.484;2023-06-22T12:25:24;13.40;;;8.87;;
4563;SDS011;2294;51.818;8.484;2023-06-22T12:27:51;14.63;;;9.10;;
4563;SDS011;2294;51.818;8.484;2023-06-22T12:30:18;10.40;;;9.30;;
4563;SDS011;2294;51.818;8.484;2023-06-22T12:32:45;14.23;;;10.17;;
4563;SDS011;2294;51.818;8.484;2023-06-22T12:35:12;11.20;;;9.80;;
4563;SDS011;2294;51.818;8.484;2023-06-22T12:37:41;12.50;;;9.93;;
4563;SDS011;2294;51.818;8.484;2023-06-22T12:40:09;14.07;;;11.00;;
4563;SDS011;2294;51.818;8.484;2023-06-22T12:42:36;14.87;;;10.63;;
4563;SDS011;2294;51.818;8.484;2023-06-22T12:45:04;17.37;;;11.87;;
4563;SDS011;2294;51.818;8.484;2023-06-22T12:47:31;15.47;;;12.13;;
4563;SDS011;2294;51.818;8.484;2023-06-22T12:49:58;14.13;;;10.33;;
4563;SDS011;2294;51.818;8.484;2023-06-22T12:52:25;13.17;;;11.67;;
4563;SDS011;2294;51.818;8.484;2023-06-22T12:54:54;15.20;;;11.13;;
4563;SDS011;2294;51.818;8.484;2023-06-22T12:57:21;12.20;;;10.77;;
4563;SDS011;2294;51.818;8.484;2023-06-22T12:59:48;14.77;;;12.17;;
4563;SDS011;2294;51.818;8.484;2023-06-22T13:02:15;13.37;;;11.07;;
4563;SDS011;2294;51.818;8.484;2023-06-22T13:04:42;14.30;;;12.60;;
4563;SDS011;2294;51.818;8.484;2023-06-22T13:07:09;14.20;;;12.70;;
4563;SDS011;2294;51.818;8.484;2023-06-22T13:09:36;13.90;;;12.20;;
4563;SDS011;2294;51.818;8.484;2023-06-22T13:12:05;24.00;;;13.10;;
4563;SDS011;2294;51.818;8.484;2023-06-22T13:14:32;14.70;;;12.97;;
4563;SDS011;2294;51.818;8.484;2023-06-22T13:16:59;17.03;;;13.43;;
4563;SDS011;2294;51.818;8.484;2023-06-22T13:19:26;18.70;;;13.60;;
4563;SDS011;2294;51.818;8.484;2023-06-22T13:21:57;16.93;;;13.07;;
4563;SDS011;2294;51.818;8.484;2023-06-22T13:24:24;16.50;;;14.00;;
4563;SDS011;2294;51.818;8.484;2023-06-22T13:26:51;17.83;;;13.40;;
4563;SDS011;2294;51.818;8.484;2023-06-22T13:29:19;21.13;;;13.10;;
4563;SDS011;2294;51.818;8.484;2023-06-22T13:31:46;19.47;;;13.37;;
4563;SDS011;2294;51.818;8.484;2023-06-22T13:34:13;14.60;;;11.53;;
4563;SDS011;2294;51.818;8.484;2023-06-22T13:36:40;18.00;;;13.70;;
4563;SDS011;2294;51.818;8.484;2023-06-22T13:39:07;17.53;;;13.70;;
4563;SDS011;2294;51.818;8.484;2023-06-22T13:41:34;16.80;;;13.40;;
4563;SDS011;2294;51.818;8.484;2023-06-22T13:44:01;16.93;;;13.00;;
4563;SDS011;2294;51.818;8.484;2023-06-22T13:46:30;17.10;;;13.17;;
4563;SDS011;2294;51.818;8.484;2023-06-22T13:48:56;20.67;;;15.17;;
4563;SDS011;2294;51.818;8.484;2023-06-22T13:51:23;19.90;;;14.40;;
4563;SDS011;2294;51.818;8.484;2023-06-22T13:53:50;19.30;;;14.97;;
4563;SDS011;2294;51.818;8.484;2023-06-22T13:56:17;18.40;;;14.87;;
4563;SDS011;2294;51.818;8.484;2023-06-22T13:58:44;20.70;;;14.90;;
4563;SDS011;2294;51.818;8.484;2023-06-22T14:01:11;20.50;;;14.23;;
4563;SDS011;2294;51.818;8.484;2023-06-22T14:03:39;21.07;;;15.20;;
4563;SDS011;2294;51.818;8.484;2023-06-22T14:06:06;21.60;;;15.60;;
4563;SDS011;2294;51.818;8.484;2023-06-22T14:08:35;20.57;;;17.03;;
4563;SDS011;2294;51.818;8.484;2023-06-22T14:11:03;19.10;;;16.43;;
4563;SDS011;2294;51.818;8.484;2023-06-22T14:13:30;18.83;;;15.37;;
4563;SDS011;2294;51.818;8.484;2023-06-22T14:15:57;22.83;;;15.40;;
4563;SDS011;2294;51.818;8.484;2023-06-22T14:18:24;24.40;;;16.27;;
4563;SDS011;2294;51.818;8.484;2023-06-22T14:20:52;21.43;;;15.90;;
4563;SDS011;2294;51.818;8.484;2023-06-22T14:23:19;19.60;;;16.23;;
4563;SDS011;2294;51.818;8.484;2023-06-22T14:25:46;21.93;;;16.03;;
4563;SDS011;2294;51.818;8.484;2023-06-22T14:28:13;21.30;;;16.70;;
4563;SDS011;2294;51.818;8.484;2023-06-22T14:30:41;21.03;;;15.30;;
4563;SDS011;2294;51.818;8.484;2023-06-22T14:33:08;23.80;;;17.47;;
4563;SDS011;2294;51.818;8.484;2023-06-22T14:35:35;21.53;;;15.77;;
4563;SDS011;2294;51.818;8.484;2023-06-22T14:38:03;19.57;;;16.00;;
4563;SDS011;2294;51.818;8.484;2023-06-22T14:40:30;21.37;;;16.40;;
4563;SDS011;2294;51.818;8.484;2023-06-22T14:42:57;20.23;;;15.57;;
4563;SDS011;2294;51.818;8.484;2023-06-22T14:45:24;20.50;;;16.10;;
4563;SDS011;2294;51.818;8.484;2023-06-22T14:47:50;20.47;;;15.53;;
4563;SDS011;2294;51.818;8.484;2023-06-22T14:50:17;18.90;;;14.53;;
4563;SDS011;2294;51.818;8.484;2023-06-22T14:52:44;18.20;;;14.77;;
4563;SDS011;2294;51.818;8.484;2023-06-22T14:55:12;16.50;;;14.60;;
4563;SDS011;2294;51.818;8.484;2023-06-22T14:57:39;14.67;;;13.07;;